Flight Track Log - Related Links

Times and Time Zones

All times are in EDT time to prevent confusion due to time zone crossing. See the DAL3799 flight status page for this flight to view local times or setup timezone preferences in your user account.


Time Position Orientation Groundspeed Altitude Reporting Facility
EDT Latitude Longitude Course Direction KTS MPH feet Rate Location/Type
Wed 05:55:26 PM 39.0522 -77.5189 297° West 245 282 3,900  Level Washington Center
Wed 05:56:00 PM 39.2774 -77.5373 344° North  Level FlightAware Approximate
Wed 05:56:27 PM 39.1228 -77.5447 344° North 250 288 5,200  Level Washington Center
Wed 05:57:00 PM 39.3642 -77.5699 344° North  Level FlightAware Approximate
Wed 05:57:27 PM 39.1975 -77.5575 352° North 255 293 7,800  Level Washington Center
Wed 05:58:00 PM 39.4509 -77.5871 288° West  Level FlightAware Approximate
Wed 05:58:27 PM 39.2675 -77.6050 332° Northwest 268 308 10,100  Level Washington Center
Wed 05:59:00 PM 39.4788 -77.6984 288° West  Level FlightAware Approximate
Wed 05:59:25 PM 39.3433 -77.6794 323° Northwest 296 341 11,900  Level Washington Center
Wed 06:00:00 PM 39.5154 -77.8053 297° West  Level FlightAware Approximate
Wed 06:00:25 PM 39.4192 -77.7514 324° Northwest 325 374 12,700  Level Washington Center
Wed 06:01:27 PM 39.5053 -77.8319 324° Northwest 354 407 13,600 1,033 Climbing Washington Center
Wed 06:02:27 PM 39.5617 -77.9442 303° West 365 420 14,800 1,350 Climbing Washington Center
Wed 06:03:27 PM 39.6006 -78.0719 292° West 375 432 16,300 1,475 Climbing Washington Center
Wed 06:04:25 PM 39.6375 -78.2000 291° West 375 432 17,700 1,281 Climbing Washington Center
Wed 06:04:56 PM 39.6556 -78.2506 295° West 385 443 18,200 1,055 Climbing Cleveland Center
Wed 06:05:56 PM 39.6956 -78.3817 292° West 385 443 19,300 1,050 Climbing Cleveland Center
Wed 06:06:56 PM 39.7336 -78.5153 290° West 385 443 20,300 1,000 Climbing Cleveland Center
Wed 06:07:56 PM 39.7733 -78.6436 292° West 385 443 21,300 1,000 Climbing Cleveland Center
Wed 06:08:56 PM 39.8114 -78.7914 289° West 385 443 22,300 1,000 Climbing Cleveland Center
Wed 06:09:56 PM 39.8486 -78.9228 290° West 385 443 23,300 1,000 Climbing Cleveland Center
Wed 06:10:56 PM 39.8900 -79.0517 293° West 385 443 24,300 1,000 Climbing Cleveland Center
Wed 06:11:56 PM 39.9272 -79.1836 290° West 385 443 25,300 1,150 Climbing Cleveland Center
Wed 06:12:56 PM 39.9642 -79.3100 291° West 385 443 26,600 1,200 Climbing Cleveland Center
Wed 06:13:56 PM 40.0133 -79.4311 298° West 380 437 27,700 700 Climbing Cleveland Center
Wed 06:14:56 PM 40.0708 -79.5439 304° West 370 426 28,000 150 Climbing Cleveland Center
Wed 06:15:56 PM 40.1303 -79.6597 304° West 380 437 28,000  Level Cleveland Center
Wed 06:16:56 PM 40.1914 -79.7758 305° West 388 447 28,000  Level Cleveland Center
Wed 06:17:56 PM 40.2506 -79.8922 304° West 388 447 28,000  Level Cleveland Center
Wed 06:18:56 PM 40.3097 -80.0086 304° West 388 447 28,000  Level Cleveland Center
Wed 06:19:56 PM 40.3622 -80.1172 302° West 389 448 28,000  Level Cleveland Center
Wed 06:20:56 PM 40.4231 -80.2394 303° West 395 455 28,000  Level Cleveland Center
Wed 06:21:56 PM 40.4881 -80.3647 304° West 402 463 28,000  Level Cleveland Center
Wed 06:22:56 PM 40.5528 -80.4956 303° West 422 486 28,000  Level Cleveland Center
Wed 06:23:56 PM 40.6175 -80.6297 302° West 434 499 28,000  Level Cleveland Center
Wed 06:24:56 PM 40.6861 -80.7639 304° West 439 505 28,000  Level Cleveland Center
Wed 06:25:56 PM 40.7547 -80.8983 304° West 439 505 28,000  Level Cleveland Center
Wed 06:26:56 PM 40.8208 -81.0331 303° West 439 505 28,000  Level Cleveland Center
Wed 06:27:56 PM 40.8869 -81.1792 301° West 434 499 28,000  Level Cleveland Center
Wed 06:28:56 PM 40.9486 -81.3061 303° West 429 494 28,000 -450 Level Cleveland Center
Wed 06:29:56 PM 41.0103 -81.4333 303° West 422 486 27,100 -1,100 Descending Cleveland Center
Wed 06:30:56 PM 41.0697 -81.5608 302° West 412 474 25,800 -1,250 Descending Cleveland Center
Wed 06:31:56 PM 41.1272 -81.6692 305° West 412 474 24,600 -1,100 Descending Cleveland Center
Wed 06:32:56 PM 41.1864 -81.7944 302° West 412 474 23,600 -1,000 Descending Cleveland Center
Wed 06:33:56 PM 41.2414 -81.9114 302° West 394 453 22,600 -1,000 Descending Cleveland Center
Wed 06:34:56 PM 41.2942 -82.0203 303° West 379 436 21,600 -1,000 Descending Cleveland Center
Wed 06:35:56 PM 41.3408 -82.1264 300° West 350 403 20,600 -800 Descending Cleveland Center
Wed 06:36:56 PM 41.3936 -82.2244 306° West 331 381 20,000 -300 Descending Cleveland Center
Wed 06:37:56 PM 41.4528 -82.3203 309° West 319 367 20,000 -400 Level Cleveland Center
Wed 06:38:56 PM 41.5097 -82.4161 308° West 319 367 19,200 -1,340 Descending Cleveland Center
Wed 06:39:39 PM 41.5522 -82.4839 310° West 322 371 17,700 -2,019 Descending Cleveland Center
Wed 06:40:40 PM 41.6028 -82.5714 308° West 312 359 15,700 -1,869 Descending Cleveland Center
Wed 06:41:41 PM 41.6556 -82.6592 309° West 299 344 13,900 -1,574 Descending Cleveland Center
Wed 06:42:42 PM 41.7061 -82.7497 307° West 292 336 12,500 -927 Descending Cleveland Center
Wed 06:43:44 PM 41.7669 -82.8297 316° Northwest 295 339 12,000 -390 Descending Cleveland Center
Wed 06:44:45 PM 41.8239 -82.8986 318° Northwest 245 282 11,700 -864 Descending Cleveland Center
Wed 06:45:56 PM 41.8703 -82.9756 309° West 250 288 10,100 -1,475 Descending Cleveland Center
Wed 06:46:47 PM 41.8853 -83.0572 284° West 242 278 8,700 -1,339 Descending Cleveland Center
Wed 06:47:48 PM 41.8811 -83.1492 267° West 244 281 7,600 -1,033 Descending Cleveland Center
Wed 06:48:49 PM 41.8875 -83.2386 276° West 235 270 6,600 -787 Descending Cleveland Center
Wed 06:49:50 PM 41.8939 -83.3225 276° West 224 258 6,000 -488 Descending Cleveland Center
Wed 06:50:52 PM 41.9111 -83.3903 289° West 203 234 5,600 -683 Descending Cleveland Center
Wed 06:51:53 PM 41.9514 -83.4478 313° West 197 227 4,600 -787 Descending Cleveland Center
Wed 06:52:54 PM 42.0047 -83.4725 341° North 201 231 4,000 -397 Descending Cleveland Center
Wed 06:53:54 PM 42.0531 -83.4581 13° North 197 227 3,800 -200 Descending Cleveland Center

Login

Don't have an account? Register now (free) for customized features, flight alerts, and more!